sensor_id;sensor_type;location;lat;lon;timestamp;temperature;humidity
59007;DHT22;44792;52.760;6.726;2023-04-25T00:02:21;8.00;99.90
59007;DHT22;44792;52.760;6.726;2023-04-25T00:04:47;8.10;99.90
59007;DHT22;44792;52.760;6.726;2023-04-25T00:07:15;8.10;99.90
59007;DHT22;44792;52.760;6.726;2023-04-25T00:09:42;8.10;99.90
59007;DHT22;44792;52.760;6.726;2023-04-25T00:12:07;8.00;99.90
59007;DHT22;44792;52.760;6.726;2023-04-25T00:14:33;8.00;99.90
59007;DHT22;44792;52.760;6.726;2023-04-25T00:17:00;8.00;99.90
59007;DHT22;44792;52.760;6.726;2023-04-25T00:19:26;8.00;99.90
59007;DHT22;44792;52.760;6.726;2023-04-25T00:21:56;8.00;99.90
59007;DHT22;44792;52.760;6.726;2023-04-25T00:24:23;8.00;99.90
59007;DHT22;44792;52.760;6.726;2023-04-25T00:26:48;7.90;99.90
59007;DHT22;44792;52.760;6.726;2023-04-25T00:29:14;8.00;99.90
59007;DHT22;44792;52.760;6.726;2023-04-25T00:31:40;7.90;99.90
59007;DHT22;44792;52.760;6.726;2023-04-25T00:34:08;7.90;99.90
59007;DHT22;44792;52.760;6.726;2023-04-25T00:36:34;7.90;99.90
59007;DHT22;44792;52.760;6.726;2023-04-25T00:39:00;7.90;99.90
59007;DHT22;44792;52.760;6.726;2023-04-25T00:41:26;7.80;99.90
59007;DHT22;44792;52.760;6.726;2023-04-25T00:43:53;7.80;99.90
59007;DHT22;44792;52.760;6.726;2023-04-25T00:46:19;7.80;99.90
59007;DHT22;44792;52.760;6.726;2023-04-25T00:48:45;7.70;99.90
59007;DHT22;44792;52.760;6.726;2023-04-25T00:51:15;7.70;99.90
59007;DHT22;44792;52.760;6.726;2023-04-25T00:53:42;7.70;99.90
59007;DHT22;44792;52.760;6.726;2023-04-25T00:56:08;7.70;99.90
59007;DHT22;44792;52.760;6.726;2023-04-25T00:58:33;7.70;99.90
59007;DHT22;44792;52.760;6.726;2023-04-25T01:01:00;7.60;99.90
59007;DHT22;44792;52.760;6.726;2023-04-25T01:03:26;7.60;99.90
59007;DHT22;44792;52.760;6.726;2023-04-25T01:05:54;7.60;99.90
59007;DHT22;44792;52.760;6.726;2023-04-25T01:08:22;7.60;99.90
59007;DHT22;44792;52.760;6.726;2023-04-25T01:10:48;7.50;99.90
59007;DHT22;44792;52.760;6.726;2023-04-25T01:13:14;7.50;99.90
59007;DHT22;44792;52.760;6.726;2023-04-25T01:15:40;7.50;99.90
59007;DHT22;44792;52.760;6.726;2023-04-25T01:18:06;7.40;99.90
59007;DHT22;44792;52.760;6.726;2023-04-25T01:20:33;7.50;99.90
59007;DHT22;44792;52.760;6.726;2023-04-25T01:22:59;7.30;99.90
59007;DHT22;44792;52.760;6.726;2023-04-25T01:25:25;7.30;99.90
59007;DHT22;44792;52.760;6.726;2023-04-25T01:27:51;7.10;99.90
59007;DHT22;44792;52.760;6.726;2023-04-25T01:30:17;7.30;99.90
59007;DHT22;44792;52.760;6.726;2023-04-25T01:32:43;7.30;99.90
59007;DHT22;44792;52.760;6.726;2023-04-25T01:35:11;7.30;99.90
59007;DHT22;44792;52.760;6.726;2023-04-25T01:37:40;7.30;99.90
59007;DHT22;44792;52.760;6.726;2023-04-25T01:40:07;7.40;99.90
59007;DHT22;44792;52.760;6.726;2023-04-25T01:42:35;7.40;99.90
59007;DHT22;44792;52.760;6.726;2023-04-25T01:45:02;7.40;99.90
59007;DHT22;44792;52.760;6.726;2023-04-25T01:47:28;7.40;99.90
59007;DHT22;44792;52.760;6.726;2023-04-25T01:49:54;7.30;99.90
59007;DHT22;44792;52.760;6.726;2023-04-25T01:52:20;7.40;99.90
59007;DHT22;44792;52.760;6.726;2023-04-25T01:54:45;7.40;99.90
59007;DHT22;44792;52.760;6.726;2023-04-25T01:57:12;7.40;99.90
59007;DHT22;44792;52.760;6.726;2023-04-25T01:59:38;7.40;99.90
59007;DHT22;44792;52.760;6.726;2023-04-25T02:02:03;7.30;99.90
59007;DHT22;44792;52.760;6.726;2023-04-25T02:04:30;7.30;99.90
59007;DHT22;44792;52.760;6.726;2023-04-25T02:06:55;7.30;99.90
59007;DHT22;44792;52.760;6.726;2023-04-25T02:09:21;7.40;99.90
59007;DHT22;44792;52.760;6.726;2023-04-25T02:11:47;7.40;99.90
59007;DHT22;44792;52.760;6.726;2023-04-25T02:14:13;7.40;99.90
59007;DHT22;44792;52.760;6.726;2023-04-25T02:16:38;7.40;99.90
59007;DHT22;44792;52.760;6.726;2023-04-25T02:19:05;7.40;99.90
59007;DHT22;44792;52.760;6.726;2023-04-25T02:21:32;7.30;99.90
59007;DHT22;44792;52.760;6.726;2023-04-25T02:23:57;7.40;99.90
59007;DHT22;44792;52.760;6.726;2023-04-25T02:26:23;7.40;99.90
59007;DHT22;44792;52.760;6.726;2023-04-25T02:28:50;7.40;99.90
59007;DHT22;44792;52.760;6.726;2023-04-25T02:31:16;7.40;99.90
59007;DHT22;44792;52.760;6.726;2023-04-25T02:33:42;7.40;99.90
59007;DHT22;44792;52.760;6.726;2023-04-25T02:36:08;7.40;99.90
59007;DHT22;44792;52.760;6.726;2023-04-25T02:38:34;7.40;99.90
59007;DHT22;44792;52.760;6.726;2023-04-25T02:41:00;7.40;99.90
59007;DHT22;44792;52.760;6.726;2023-04-25T02:43:26;7.40;99.90
59007;DHT22;44792;52.760;6.726;2023-04-25T02:45:52;7.30;99.90
59007;DHT22;44792;52.760;6.726;2023-04-25T02:48:17;7.40;99.90
59007;DHT22;44792;52.760;6.726;2023-04-25T02:50:43;7.30;99.90
59007;DHT22;44792;52.760;6.726;2023-04-25T02:53:09;7.40;99.90
59007;DHT22;44792;52.760;6.726;2023-04-25T02:55:34;7.40;99.90
59007;DHT22;44792;52.760;6.726;2023-04-25T02:58:00;7.40;99.90
59007;DHT22;44792;52.760;6.726;2023-04-25T03:00:26;7.40;99.90
59007;DHT22;44792;52.760;6.726;2023-04-25T03:02:52;7.40;99.90
59007;DHT22;44792;52.760;6.726;2023-04-25T03:05:17;7.30;99.90
59007;DHT22;44792;52.760;6.726;2023-04-25T03:07:43;7.30;99.90
59007;DHT22;44792;52.760;6.726;2023-04-25T03:10:10;7.20;99.90
59007;DHT22;44792;52.760;6.726;2023-04-25T03:12:36;7.30;99.90
59007;DHT22;44792;52.760;6.726;2023-04-25T03:15:02;7.30;99.90
59007;DHT22;44792;52.760;6.726;2023-04-25T03:17:29;7.30;99.90
59007;DHT22;44792;52.760;6.726;2023-04-25T03:19:55;7.30;99.90
59007;DHT22;44792;52.760;6.726;2023-04-25T03:22:21;7.20;99.90
59007;DHT22;44792;52.760;6.726;2023-04-25T03:24:47;7.20;99.90
59007;DHT22;44792;52.760;6.726;2023-04-25T03:27:13;7.20;99.90
59007;DHT22;44792;52.760;6.726;2023-04-25T03:29:38;7.20;99.90
59007;DHT22;44792;52.760;6.726;2023-04-25T03:32:06;7.30;99.90
59007;DHT22;44792;52.760;6.726;2023-04-25T03:34:31;7.30;99.90
59007;DHT22;44792;52.760;6.726;2023-04-25T03:36:57;7.30;99.90
59007;DHT22;44792;52.760;6.726;2023-04-25T03:39:23;7.20;99.90
59007;DHT22;44792;52.760;6.726;2023-04-25T03:41:48;7.30;99.90
59007;DHT22;44792;52.760;6.726;2023-04-25T03:44:14;7.20;99.90
59007;DHT22;44792;52.760;6.726;2023-04-25T03:46:40;7.20;99.90
59007;DHT22;44792;52.760;6.726;2023-04-25T03:49:06;7.20;99.90
59007;DHT22;44792;52.760;6.726;2023-04-25T03:51:32;7.00;99.90
59007;DHT22;44792;52.760;6.726;2023-04-25T03:53:57;7.10;99.90
59007;DHT22;44792;52.760;6.726;2023-04-25T03:56:23;7.00;99.90
59007;DHT22;44792;52.760;6.726;2023-04-25T03:58:49;7.00;99.90
59007;DHT22;44792;52.760;6.726;2023-04-25T04:01:14;7.00;99.90
59007;DHT22;44792;52.760;6.726;2023-04-25T04:03:40;7.00;99.90
59007;DHT22;44792;52.760;6.726;2023-04-25T04:06:06;6.90;99.90
59007;DHT22;44792;52.760;6.726;2023-04-25T04:08:33;6.90;99.90
59007;DHT22;44792;52.760;6.726;2023-04-25T04:10:59;6.90;99.90
59007;DHT22;44792;52.760;6.726;2023-04-25T04:13:28;7.00;99.90
59007;DHT22;44792;52.760;6.726;2023-04-25T04:15:55;6.90;99.90
59007;DHT22;44792;52.760;6.726;2023-04-25T04:18:21;6.90;99.90
59007;DHT22;44792;52.760;6.726;2023-04-25T04:20:47;6.90;99.90
59007;DHT22;44792;52.760;6.726;2023-04-25T04:23:13;6.90;99.90
59007;DHT22;44792;52.760;6.726;2023-04-25T04:25:38;6.90;99.90
59007;DHT22;44792;52.760;6.726;2023-04-25T04:28:05;7.00;99.90
59007;DHT22;44792;52.760;6.726;2023-04-25T04:30:31;6.90;99.90
59007;DHT22;44792;52.760;6.726;2023-04-25T04:32:59;6.90;99.90
59007;DHT22;44792;52.760;6.726;2023-04-25T04:35:26;6.90;99.90
59007;DHT22;44792;52.760;6.726;2023-04-25T04:37:52;7.00;99.90
59007;DHT22;44792;52.760;6.726;2023-04-25T04:40:17;6.90;99.90
59007;DHT22;44792;52.760;6.726;2023-04-25T04:42:44;6.90;99.90
59007;DHT22;44792;52.760;6.726;2023-04-25T04:45:14;7.00;99.90
59007;DHT22;44792;52.760;6.726;2023-04-25T04:47:40;6.90;99.90
59007;DHT22;44792;52.760;6.726;2023-04-25T04:50:09;7.00;99.90
59007;DHT22;44792;52.760;6.726;2023-04-25T04:52:36;6.90;99.90
59007;DHT22;44792;52.760;6.726;2023-04-25T04:55:03;6.90;99.90
59007;DHT22;44792;52.760;6.726;2023-04-25T04:57:29;6.90;99.90
59007;DHT22;44792;52.760;6.726;2023-04-25T04:59:56;6.90;99.90
59007;DHT22;44792;52.760;6.726;2023-04-25T05:02:22;7.00;99.90
59007;DHT22;44792;52.760;6.726;2023-04-25T05:04:47;6.90;99.90
59007;DHT22;44792;52.760;6.726;2023-04-25T05:07:13;6.90;99.90
59007;DHT22;44792;52.760;6.726;2023-04-25T05:09:39;7.00;99.90
59007;DHT22;44792;52.760;6.726;2023-04-25T05:12:05;7.10;99.90
59007;DHT22;44792;52.760;6.726;2023-04-25T05:14:31;7.00;99.90
59007;DHT22;44792;52.760;6.726;2023-04-25T05:16:56;7.00;99.90
59007;DHT22;44792;52.760;6.726;2023-04-25T05:19:22;7.00;99.90
59007;DHT22;44792;52.760;6.726;2023-04-25T05:21:49;7.00;99.90
59007;DHT22;44792;52.760;6.726;2023-04-25T05:24:15;7.00;99.90
59007;DHT22;44792;52.760;6.726;2023-04-25T05:26:41;7.00;99.90
59007;DHT22;44792;52.760;6.726;2023-04-25T05:29:06;7.10;99.90
59007;DHT22;44792;52.760;6.726;2023-04-25T05:31:33;7.00;99.90
59007;DHT22;44792;52.760;6.726;2023-04-25T05:33:58;7.00;99.90
59007;DHT22;44792;52.760;6.726;2023-04-25T05:36:24;7.00;99.90
59007;DHT22;44792;52.760;6.726;2023-04-25T05:38:50;7.10;99.90
59007;DHT22;44792;52.760;6.726;2023-04-25T05:41:15;7.20;99.90
59007;DHT22;44792;52.760;6.726;2023-04-25T05:43:41;7.40;99.90
59007;DHT22;44792;52.760;6.726;2023-04-25T05:46:12;7.60;99.90
59007;DHT22;44792;52.760;6.726;2023-04-25T05:48:38;7.70;99.90
59007;DHT22;44792;52.760;6.726;2023-04-25T05:51:04;7.80;99.90
59007;DHT22;44792;52.760;6.726;2023-04-25T05:53:29;7.90;99.90
59007;DHT22;44792;52.760;6.726;2023-04-25T05:55:55;8.00;99.90
59007;DHT22;44792;52.760;6.726;2023-04-25T05:58:21;8.10;99.90
59007;DHT22;44792;52.760;6.726;2023-04-25T06:00:46;8.10;99.90
59007;DHT22;44792;52.760;6.726;2023-04-25T06:03:12;8.30;99.90
59007;DHT22;44792;52.760;6.726;2023-04-25T06:05:43;8.40;99.90
59007;DHT22;44792;52.760;6.726;2023-04-25T06:08:09;8.40;99.90
59007;DHT22;44792;52.760;6.726;2023-04-25T06:10:36;8.40;99.90
59007;DHT22;44792;52.760;6.726;2023-04-25T06:13:02;8.30;99.90
59007;DHT22;44792;52.760;6.726;2023-04-25T06:15:28;8.30;99.90
59007;DHT22;44792;52.760;6.726;2023-04-25T06:17:54;8.30;99.90
59007;DHT22;44792;52.760;6.726;2023-04-25T06:20:19;8.30;99.90
59007;DHT22;44792;52.760;6.726;2023-04-25T06:22:49;8.20;99.90
59007;DHT22;44792;52.760;6.726;2023-04-25T06:25:15;8.10;99.90
59007;DHT22;44792;52.760;6.726;2023-04-25T06:27:41;8.20;99.90
59007;DHT22;44792;52.760;6.726;2023-04-25T06:30:07;8.00;99.90
59007;DHT22;44792;52.760;6.726;2023-04-25T06:32:33;8.20;99.90
59007;DHT22;44792;52.760;6.726;2023-04-25T06:35:00;8.10;99.90
59007;DHT22;44792;52.760;6.726;2023-04-25T06:37:26;8.10;99.90
59007;DHT22;44792;52.760;6.726;2023-04-25T06:39:51;8.10;99.90
59007;DHT22;44792;52.760;6.726;2023-04-25T06:42:17;8.10;99.90
59007;DHT22;44792;52.760;6.726;2023-04-25T06:44:43;8.10;99.90
59007;DHT22;44792;52.760;6.726;2023-04-25T06:47:08;8.10;99.90
59007;DHT22;44792;52.760;6.726;2023-04-25T06:49:34;8.10;99.90
59007;DHT22;44792;52.760;6.726;2023-04-25T06:52:00;8.40;99.90
59007;DHT22;44792;52.760;6.726;2023-04-25T06:54:26;8.30;99.90
59007;DHT22;44792;52.760;6.726;2023-04-25T06:56:54;8.40;99.90
59007;DHT22;44792;52.760;6.726;2023-04-25T06:59:19;8.40;99.90
59007;DHT22;44792;52.760;6.726;2023-04-25T07:01:45;8.50;99.90
59007;DHT22;44792;52.760;6.726;2023-04-25T07:04:11;8.60;99.90
59007;DHT22;44792;52.760;6.726;2023-04-25T07:06:36;8.60;99.90
59007;DHT22;44792;52.760;6.726;2023-04-25T07:09:08;8.60;99.90
59007;DHT22;44792;52.760;6.726;2023-04-25T07:11:34;8.70;99.90
59007;DHT22;44792;52.760;6.726;2023-04-25T07:13:59;8.70;99.90
59007;DHT22;44792;52.760;6.726;2023-04-25T07:16:26;8.80;99.90
59007;DHT22;44792;52.760;6.726;2023-04-25T07:18:51;8.90;99.90
59007;DHT22;44792;52.760;6.726;2023-04-25T07:21:17;8.90;99.90
59007;DHT22;44792;52.760;6.726;2023-04-25T07:23:43;8.90;99.90
59007;DHT22;44792;52.760;6.726;2023-04-25T07:26:08;8.90;99.90
59007;DHT22;44792;52.760;6.726;2023-04-25T07:28:34;8.60;99.90
59007;DHT22;44792;52.760;6.726;2023-04-25T07:31:00;8.70;99.90
59007;DHT22;44792;52.760;6.726;2023-04-25T07:33:26;8.70;99.90
59007;DHT22;44792;52.760;6.726;2023-04-25T07:35:52;8.70;99.90
59007;DHT22;44792;52.760;6.726;2023-04-25T07:38:18;8.80;99.90
59007;DHT22;44792;52.760;6.726;2023-04-25T07:40:43;8.80;99.90
59007;DHT22;44792;52.760;6.726;2023-04-25T07:43:09;8.80;99.90
59007;DHT22;44792;52.760;6.726;2023-04-25T07:45:37;8.80;99.90
59007;DHT22;44792;52.760;6.726;2023-04-25T07:48:03;8.80;99.90
59007;DHT22;44792;52.760;6.726;2023-04-25T07:50:29;8.90;99.90
59007;DHT22;44792;52.760;6.726;2023-04-25T07:52:55;8.80;99.90
59007;DHT22;44792;52.760;6.726;2023-04-25T07:55:20;9.00;99.90
59007;DHT22;44792;52.760;6.726;2023-04-25T07:57:46;9.00;99.90
59007;DHT22;44792;52.760;6.726;2023-04-25T08:00:12;9.10;99.90
59007;DHT22;44792;52.760;6.726;2023-04-25T08:02:38;9.10;99.90
59007;DHT22;44792;52.760;6.726;2023-04-25T08:05:04;9.10;99.90
59007;DHT22;44792;52.760;6.726;2023-04-25T08:07:30;9.20;99.90
59007;DHT22;44792;52.760;6.726;2023-04-25T08:09:56;9.20;99.90
59007;DHT22;44792;52.760;6.726;2023-04-25T08:12:21;9.20;99.90
59007;DHT22;44792;52.760;6.726;2023-04-25T08:14:47;9.20;99.90
59007;DHT22;44792;52.760;6.726;2023-04-25T08:17:13;9.20;99.90
59007;DHT22;44792;52.760;6.726;2023-04-25T08:19:38;9.10;99.90
59007;DHT22;44792;52.760;6.726;2023-04-25T08:22:04;9.30;99.90
59007;DHT22;44792;52.760;6.726;2023-04-25T08:24:30;9.30;99.90
59007;DHT22;44792;52.760;6.726;2023-04-25T08:26:56;9.20;99.90
59007;DHT22;44792;52.760;6.726;2023-04-25T08:29:22;9.10;99.90
59007;DHT22;44792;52.760;6.726;2023-04-25T08:31:49;9.20;99.90
59007;DHT22;44792;52.760;6.726;2023-04-25T08:34:16;9.20;99.90
59007;DHT22;44792;52.760;6.726;2023-04-25T08:36:41;9.20;99.90
59007;DHT22;44792;52.760;6.726;2023-04-25T08:39:07;9.10;99.90
59007;DHT22;44792;52.760;6.726;2023-04-25T08:41:33;9.10;99.90
59007;DHT22;44792;52.760;6.726;2023-04-25T08:43:59;9.10;99.90
59007;DHT22;44792;52.760;6.726;2023-04-25T08:46:27;9.10;99.90
59007;DHT22;44792;52.760;6.726;2023-04-25T08:48:53;9.20;99.90
59007;DHT22;44792;52.760;6.726;2023-04-25T08:51:22;9.20;99.90
59007;DHT22;44792;52.760;6.726;2023-04-25T08:53:53;9.30;99.90
59007;DHT22;44792;52.760;6.726;2023-04-25T08:56:19;9.40;99.90
59007;DHT22;44792;52.760;6.726;2023-04-25T08:58:49;9.40;99.90
59007;DHT22;44792;52.760;6.726;2023-04-25T09:01:18;9.40;99.90
59007;DHT22;44792;52.760;6.726;2023-04-25T09:03:44;9.50;99.90
59007;DHT22;44792;52.760;6.726;2023-04-25T09:06:12;9.50;99.90
59007;DHT22;44792;52.760;6.726;2023-04-25T09:08:38;9.60;99.90
59007;DHT22;44792;52.760;6.726;2023-04-25T09:11:06;9.60;99.90
59007;DHT22;44792;52.760;6.726;2023-04-25T09:13:32;9.50;99.90
59007;DHT22;44792;52.760;6.726;2023-04-25T09:15:58;9.60;99.90
59007;DHT22;44792;52.760;6.726;2023-04-25T09:20:52;9.60;99.90
59007;DHT22;44792;52.760;6.726;2023-04-25T09:23:20;9.70;99.90
59007;DHT22;44792;52.760;6.726;2023-04-25T09:25:53;9.70;99.90
59007;DHT22;44792;52.760;6.726;2023-04-25T09:28:22;9.80;99.90
59007;DHT22;44792;52.760;6.726;2023-04-25T09:30:48;9.90;99.90
59007;DHT22;44792;52.760;6.726;2023-04-25T09:33:14;9.90;99.90
59007;DHT22;44792;52.760;6.726;2023-04-25T09:35:43;10.00;99.90
59007;DHT22;44792;52.760;6.726;2023-04-25T09:38:13;9.90;99.90
59007;DHT22;44792;52.760;6.726;2023-04-25T09:40:45;9.90;99.90
59007;DHT22;44792;52.760;6.726;2023-04-25T09:43:21;9.70;99.90
59007;DHT22;44792;52.760;6.726;2023-04-25T09:45:48;9.00;99.90
59007;DHT22;44792;52.760;6.726;2023-04-25T09:48:21;8.60;99.90
59007;DHT22;44792;52.760;6.726;2023-04-25T09:53:33;8.30;99.90
59007;DHT22;44792;52.760;6.726;2023-04-25T09:56:00;8.10;99.90
59007;DHT22;44792;52.760;6.726;2023-04-25T09:58:29;8.10;99.90
59007;DHT22;44792;52.760;6.726;2023-04-25T10:00:59;8.10;99.90
59007;DHT22;44792;52.760;6.726;2023-04-25T10:03:26;8.20;99.90
59007;DHT22;44792;52.760;6.726;2023-04-25T10:05:52;8.20;99.90
59007;DHT22;44792;52.760;6.726;2023-04-25T10:08:20;8.20;99.90
59007;DHT22;44792;52.760;6.726;2023-04-25T10:10:46;8.30;99.90
59007;DHT22;44792;52.760;6.726;2023-04-25T10:13:14;8.30;99.90
59007;DHT22;44792;52.760;6.726;2023-04-25T10:15:41;8.40;99.90
59007;DHT22;44792;52.760;6.726;2023-04-25T10:18:07;8.50;99.90
59007;DHT22;44792;52.760;6.726;2023-04-25T10:20:33;8.60;99.90
59007;DHT22;44792;52.760;6.726;2023-04-25T10:23:08;8.70;99.90
59007;DHT22;44792;52.760;6.726;2023-04-25T10:25:35;8.90;99.90
59007;DHT22;44792;52.760;6.726;2023-04-25T10:28:03;9.10;99.90
59007;DHT22;44792;52.760;6.726;2023-04-25T10:30:29;9.10;99.90
59007;DHT22;44792;52.760;6.726;2023-04-25T10:32:56;9.10;99.90
59007;DHT22;44792;52.760;6.726;2023-04-25T10:35:26;9.00;99.90
59007;DHT22;44792;52.760;6.726;2023-04-25T10:38:13;9.10;99.90
59007;DHT22;44792;52.760;6.726;2023-04-25T10:40:39;9.00;99.90
59007;DHT22;44792;52.760;6.726;2023-04-25T10:45:56;9.10;99.90
59007;DHT22;44792;52.760;6.726;2023-04-25T10:48:26;8.90;99.90
59007;DHT22;44792;52.760;6.726;2023-04-25T10:51:16;9.10;99.90
59007;DHT22;44792;52.760;6.726;2023-04-25T10:53:47;9.20;99.90
59007;DHT22;44792;52.760;6.726;2023-04-25T10:56:29;9.40;99.90
59007;DHT22;44792;52.760;6.726;2023-04-25T10:59:14;9.60;99.90
59007;DHT22;44792;52.760;6.726;2023-04-25T11:01:42;9.70;99.90
59007;DHT22;44792;52.760;6.726;2023-04-25T11:09:41;10.00;99.90
59007;DHT22;44792;52.760;6.726;2023-04-25T11:12:10;10.10;99.90
59007;DHT22;44792;52.760;6.726;2023-04-25T11:14:37;10.10;99.90
59007;DHT22;44792;52.760;6.726;2023-04-25T11:17:03;10.00;99.90
59007;DHT22;44792;52.760;6.726;2023-04-25T11:19:29;9.90;99.90
59007;DHT22;44792;52.760;6.726;2023-04-25T11:21:56;10.00;99.90
59007;DHT22;44792;52.760;6.726;2023-04-25T11:24:32;9.90;99.90
59007;DHT22;44792;52.760;6.726;2023-04-25T11:26:59;10.00;99.90
59007;DHT22;44792;52.760;6.726;2023-04-25T11:29:34;10.00;99.90
59007;DHT22;44792;52.760;6.726;2023-04-25T11:32:01;10.10;99.90
59007;DHT22;44792;52.760;6.726;2023-04-25T11:34:28;10.20;99.90
59007;DHT22;44792;52.760;6.726;2023-04-25T11:36:59;10.20;99.90
59007;DHT22;44792;52.760;6.726;2023-04-25T11:39:28;10.30;99.90
59007;DHT22;44792;52.760;6.726;2023-04-25T11:41:55;10.40;99.90
59007;DHT22;44792;52.760;6.726;2023-04-25T11:44:21;10.60;99.90
59007;DHT22;44792;52.760;6.726;2023-04-25T11:46:47;10.60;99.90
59007;DHT22;44792;52.760;6.726;2023-04-25T11:49:14;10.50;99.90
59007;DHT22;44792;52.760;6.726;2023-04-25T11:51:44;10.30;99.90
59007;DHT22;44792;52.760;6.726;2023-04-25T11:54:11;10.20;99.90
59007;DHT22;44792;52.760;6.726;2023-04-25T11:56:40;10.00;99.90
59007;DHT22;44792;52.760;6.726;2023-04-25T11:59:06;9.90;99.90
59007;DHT22;44792;52.760;6.726;2023-04-25T12:01:36;9.90;99.90
59007;DHT22;44792;52.760;6.726;2023-04-25T12:04:16;9.90;99.90
59007;DHT22;44792;52.760;6.726;2023-04-25T12:06:44;9.80;99.90
59007;DHT22;44792;52.760;6.726;2023-04-25T12:09:13;9.70;99.90
59007;DHT22;44792;52.760;6.726;2023-04-25T12:11:44;9.70;99.90
59007;DHT22;44792;52.760;6.726;2023-04-25T12:14:10;9.60;99.90
59007;DHT22;44792;52.760;6.726;2023-04-25T12:16:44;9.40;99.90
59007;DHT22;44792;52.760;6.726;2023-04-25T12:19:09;9.50;99.90
59007;DHT22;44792;52.760;6.726;2023-04-25T12:21:35;9.60;99.90
59007;DHT22;44792;52.760;6.726;2023-04-25T12:24:23;9.50;99.90
59007;DHT22;44792;52.760;6.726;2023-04-25T12:29:28;9.70;99.90
59007;DHT22;44792;52.760;6.726;2023-04-25T12:31:55;9.70;99.90
59007;DHT22;44792;52.760;6.726;2023-04-25T12:34:21;9.80;99.90
59007;DHT22;44792;52.760;6.726;2023-04-25T12:36:48;9.90;99.90
59007;DHT22;44792;52.760;6.726;2023-04-25T12:39:15;9.90;99.90
59007;DHT22;44792;52.760;6.726;2023-04-25T12:41:41;9.90;99.90
59007;DHT22;44792;52.760;6.726;2023-04-25T12:44:06;9.90;99.90
59007;DHT22;44792;52.760;6.726;2023-04-25T12:46:32;9.90;99.90
59007;DHT22;44792;52.760;6.726;2023-04-25T12:48:58;9.90;99.90
59007;DHT22;44792;52.760;6.726;2023-04-25T12:51:24;10.00;99.90
59007;DHT22;44792;52.760;6.726;2023-04-25T12:53:51;10.00;99.90
59007;DHT22;44792;52.760;6.726;2023-04-25T12:56:17;10.00;99.90
59007;DHT22;44792;52.760;6.726;2023-04-25T12:58:43;10.00;99.90
59007;DHT22;44792;52.760;6.726;2023-04-25T13:01:09;10.10;99.90
59007;DHT22;44792;52.760;6.726;2023-04-25T13:03:35;10.20;99.90
59007;DHT22;44792;52.760;6.726;2023-04-25T13:06:01;10.00;99.90
59007;DHT22;44792;52.760;6.726;2023-04-25T13:08:26;9.90;99.90
59007;DHT22;44792;52.760;6.726;2023-04-25T13:10:52;9.90;99.90
59007;DHT22;44792;52.760;6.726;2023-04-25T13:13:18;9.70;99.90
59007;DHT22;44792;52.760;6.726;2023-04-25T13:15:43;9.50;99.90
59007;DHT22;44792;52.760;6.726;2023-04-25T13:18:10;9.60;99.90
59007;DHT22;44792;52.760;6.726;2023-04-25T13:20:35;9.70;99.90
59007;DHT22;44792;52.760;6.726;2023-04-25T13:23:01;9.70;99.90
59007;DHT22;44792;52.760;6.726;2023-04-25T13:25:27;9.70;99.90
59007;DHT22;44792;52.760;6.726;2023-04-25T13:27:52;9.70;99.90
59007;DHT22;44792;52.760;6.726;2023-04-25T13:30:18;9.80;99.90
59007;DHT22;44792;52.760;6.726;2023-04-25T13:32:44;9.80;99.90
59007;DHT22;44792;52.760;6.726;2023-04-25T13:35:11;9.70;99.90
59007;DHT22;44792;52.760;6.726;2023-04-25T13:37:38;9.80;99.90
59007;DHT22;44792;52.760;6.726;2023-04-25T13:40:09;9.80;99.90
59007;DHT22;44792;52.760;6.726;2023-04-25T13:42:36;9.80;99.90
59007;DHT22;44792;52.760;6.726;2023-04-25T13:45:02;9.80;99.90
59007;DHT22;44792;52.760;6.726;2023-04-25T13:47:29;9.80;99.90
59007;DHT22;44792;52.760;6.726;2023-04-25T13:49:55;9.90;99.90
59007;DHT22;44792;52.760;6.726;2023-04-25T13:52:22;9.90;99.90
59007;DHT22;44792;52.760;6.726;2023-04-25T13:54:49;9.90;99.90
59007;DHT22;44792;52.760;6.726;2023-04-25T13:57:16;10.00;99.90
59007;DHT22;44792;52.760;6.726;2023-04-25T13:59:41;10.10;99.90
59007;DHT22;44792;52.760;6.726;2023-04-25T14:02:07;10.10;99.90
59007;DHT22;44792;52.760;6.726;2023-04-25T14:04:33;10.10;99.90
59007;DHT22;44792;52.760;6.726;2023-04-25T14:06:59;10.10;99.90
59007;DHT22;44792;52.760;6.726;2023-04-25T14:09:25;10.00;99.90
59007;DHT22;44792;52.760;6.726;2023-04-25T14:11:54;10.00;99.90
59007;DHT22;44792;52.760;6.726;2023-04-25T14:14:21;10.10;99.90
59007;DHT22;44792;52.760;6.726;2023-04-25T14:16:47;10.20;99.90
59007;DHT22;44792;52.760;6.726;2023-04-25T14:19:14;10.20;99.90
59007;DHT22;44792;52.760;6.726;2023-04-25T14:21:40;10.30;99.90
59007;DHT22;44792;52.760;6.726;2023-04-25T14:24:06;10.50;99.90
59007;DHT22;44792;52.760;6.726;2023-04-25T14:26:33;10.80;99.90
59007;DHT22;44792;52.760;6.726;2023-04-25T14:29:00;10.90;99.90
59007;DHT22;44792;52.760;6.726;2023-04-25T14:31:26;10.90;99.90
59007;DHT22;44792;52.760;6.726;2023-04-25T14:33:53;10.70;99.90
59007;DHT22;44792;52.760;6.726;2023-04-25T14:36:19;10.80;99.90
59007;DHT22;44792;52.760;6.726;2023-04-25T14:38:44;10.70;99.90
59007;DHT22;44792;52.760;6.726;2023-04-25T14:41:11;10.60;99.90
59007;DHT22;44792;52.760;6.726;2023-04-25T14:43:36;10.50;99.90
59007;DHT22;44792;52.760;6.726;2023-04-25T14:46:03;10.50;99.90
59007;DHT22;44792;52.760;6.726;2023-04-25T14:48:29;10.40;99.90
59007;DHT22;44792;52.760;6.726;2023-04-25T14:50:55;10.60;99.90
59007;DHT22;44792;52.760;6.726;2023-04-25T14:53:22;10.50;99.90
59007;DHT22;44792;52.760;6.726;2023-04-25T14:55:48;10.50;99.90
59007;DHT22;44792;52.760;6.726;2023-04-25T14:58:14;10.20;99.90
59007;DHT22;44792;52.760;6.726;2023-04-25T15:00:40;10.20;99.90
59007;DHT22;44792;52.760;6.726;2023-04-25T15:03:06;10.10;99.90
59007;DHT22;44792;52.760;6.726;2023-04-25T15:05:34;10.20;99.90
59007;DHT22;44792;52.760;6.726;2023-04-25T15:08:02;10.30;99.90
59007;DHT22;44792;52.760;6.726;2023-04-25T15:10:28;10.30;99.90
59007;DHT22;44792;52.760;6.726;2023-04-25T15:12:54;10.30;99.90
59007;DHT22;44792;52.760;6.726;2023-04-25T15:15:20;10.30;99.90
59007;DHT22;44792;52.760;6.726;2023-04-25T15:17:47;10.30;99.90
59007;DHT22;44792;52.760;6.726;2023-04-25T15:20:13;10.40;99.90
59007;DHT22;44792;52.760;6.726;2023-04-25T15:22:42;10.40;99.90
59007;DHT22;44792;52.760;6.726;2023-04-25T15:25:09;10.50;99.90
59007;DHT22;44792;52.760;6.726;2023-04-25T15:27:38;10.50;99.90
59007;DHT22;44792;52.760;6.726;2023-04-25T15:30:07;10.50;99.90
59007;DHT22;44792;52.760;6.726;2023-04-25T15:32:34;10.50;99.90
59007;DHT22;44792;52.760;6.726;2023-04-25T15:35:04;10.60;99.90
59007;DHT22;44792;52.760;6.726;2023-04-25T15:37:31;10.60;99.90
59007;DHT22;44792;52.760;6.726;2023-04-25T15:42:35;10.50;99.90
59007;DHT22;44792;52.760;6.726;2023-04-25T15:45:07;10.50;99.90
59007;DHT22;44792;52.760;6.726;2023-04-25T15:47:34;10.50;99.90
59007;DHT22;44792;52.760;6.726;2023-04-25T15:50:00;10.40;99.90
59007;DHT22;44792;52.760;6.726;2023-04-25T15:52:26;10.40;99.90
59007;DHT22;44792;52.760;6.726;2023-04-25T15:54:52;10.40;99.90
59007;DHT22;44792;52.760;6.726;2023-04-25T15:57:19;10.40;99.90
59007;DHT22;44792;52.760;6.726;2023-04-25T15:59:47;10.40;99.90